Time;durP1;ratioP1;P1;durP2;ratioP2;P2;SDS_P1;SDS_P2;PMS_P1;PMS_P2;Temp;Humidity;BMP_temperature;BMP_pressure;BME280_temperature;BME280_humidity;BME280_pressure;Samples;Min_cycle;Max_cycle;Signal;HPM_P1;HPM_P2
2022/10/28 00:01:10;;;;;;;14.45;9.23;;;15.10;99.90;;;;;;6205206;22;20019;-86
2022/10/28 00:03:37;;;;;;;;;;;15.10;99.90;;;;;;6206821;22;20276;-86
2022/10/28 00:06:05;;;;;;;16.58;10.35;;;15.10;99.90;;;;;;6206192;22;19967;-86
2022/10/28 00:08:31;;;;;;;17.83;9.88;;;15.20;99.90;;;;;;6206537;22;20024;-85
2022/10/28 00:11:11;;;;;;;13.55;9.57;;;15.30;99.90;;;;;;6203427;22;20491;-86
2022/10/28 00:13:41;;;;;;;15.70;10.13;;;15.30;99.90;;;;;;6204669;22;20022;-86
2022/10/28 00:16:28;;;;;;;18.15;10.13;;;15.40;99.90;;;;;;6205549;22;20019;-86
2022/10/28 00:18:54;;;;;;;16.88;9.38;;;15.30;99.90;;;;;;6206023;22;20350;-85
2022/10/28 00:21:26;;;;;;;13.20;9.40;;;15.30;99.90;;;;;;6203771;22;20590;-86
2022/10/28 00:23:53;;;;;;;21.35;9.82;;;15.40;99.90;;;;;;6205524;22;20047;-85
2022/10/28 00:26:24;;;;;;;15.77;9.27;;;15.50;99.90;;;;;;6202114;22;20724;-86
2022/10/28 00:29:01;;;;;;;16.98;10.15;;;15.20;99.90;;;;;;6229374;22;20460;-85
2022/10/28 00:31:32;;;;;;;14.75;10.13;;;15.30;99.90;;;;;;6204156;22;20015;-85
2022/10/28 00:33:59;;;;;;;18.58;9.40;;;15.30;99.90;;;;;;6204958;22;20059;-85
2022/10/28 00:36:30;;;;;;;15.23;9.70;;;15.40;99.90;;;;;;6230012;22;20511;-86
2022/10/28 00:39:01;;;;;;;14.95;10.02;;;15.40;99.90;;;;;;6203162;22;20068;-85
2022/10/28 00:41:28;;;;;;;18.30;9.90;;;15.20;99.90;;;;;;6201436;22;20019;-85
2022/10/28 00:44:00;;;;;;;19.48;10.43;;;15.20;99.90;;;;;;6229117;22;20019;-85
2022/10/28 00:46:44;;;;;;;18.00;9.90;;;15.30;99.90;;;;;;6231360;22;20083;-85
2022/10/28 00:49:24;;;;;;;18.55;10.77;;;15.10;99.90;;;;;;6205826;22;20014;-85
2022/10/28 00:51:56;;;;;;;15.73;10.40;;;15.40;99.90;;;;;;6254800;22;20019;-85
2022/10/28 00:54:22;;;;;;;16.17;10.48;;;15.40;99.90;;;;;;6254906;22;20099;-86
2022/10/28 00:56:55;;;;;;;18.55;11.00;;;15.50;99.90;;;;;;6227627;22;20047;-86
2022/10/28 00:59:27;;;;;;;15.30;10.48;;;15.30;99.90;;;;;;6204521;22;20022;-85
2022/10/28 01:01:55;;;;;;;17.13;10.30;;;15.40;99.90;;;;;;6201458;22;20016;-86
2022/10/28 01:04:21;;;;;;;19.23;10.30;;;15.20;99.90;;;;;;6229107;22;20016;-86
2022/10/28 01:06:47;;;;;;;15.85;10.88;;;15.20;99.90;;;;;;6203077;22;20015;-85
2022/10/28 01:09:13;;;;;;;17.25;11.00;;;15.20;99.90;;;;;;6229364;22;20018;-86
2022/10/28 01:11:58;;;;;;;18.15;10.80;;;15.40;99.90;;;;;;6227911;22;20039;-86
2022/10/28 01:14:27;;;;;;;;;;;15.40;99.90;;;;;;6205880;22;20027;-87
2022/10/28 01:17:08;;;;;;;24.00;10.85;;;15.40;99.90;;;;;;6204957;22;19915;-86
2022/10/28 01:20:01;;;;;;;18.48;10.93;;;15.30;99.90;;;;;;6231535;22;20102;-85
2022/10/28 01:22:51;;;;;;;16.95;11.10;;;15.20;99.90;;;;;;6203850;22;20032;-85
2022/10/28 01:25:29;;;;;;;18.48;11.13;;;15.40;99.90;;;;;;6202905;22;20111;-86
2022/10/28 01:28:06;;;;;;;23.45;11.07;;;15.30;99.90;;;;;;6204184;22;20517;-85
2022/10/28 01:31:13;;;;;;;17.27;10.95;;;15.20;99.90;;;;;;6204542;22;20099;-86
2022/10/28 01:33:53;;;;;;;21.65;10.82;;;15.00;99.90;;;;;;6204509;22;20119;-86
2022/10/28 01:36:53;;;;;;;17.63;11.13;;;15.20;99.90;;;;;;6230811;22;20356;-86
2022/10/28 01:39:29;;;;;;;17.17;11.38;;;15.10;99.90;;;;;;6257115;22;20020;-86
2022/10/28 01:42:07;;;;;;;18.25;11.73;;;15.00;99.90;;;;;;6203572;22;20019;-86
2022/10/28 01:44:50;;;;;;;18.05;11.35;;;14.90;99.90;;;;;;6231376;22;20076;-86
2022/10/28 01:47:25;;;;;;;22.35;11.98;;;15.00;99.90;;;;;;6205578;22;20050;-86
2022/10/28 01:50:11;;;;;;;19.65;11.70;;;15.00;99.90;;;;;;6205544;22;20096;-85
2022/10/28 01:52:39;;;;;;;16.92;11.82;;;14.90;99.90;;;;;;6205196;22;20067;-86
2022/10/28 01:55:16;;;;;;;21.55;12.02;;;15.00;99.90;;;;;;6204629;22;20008;-85
2022/10/28 01:57:42;;;;;;;19.42;12.38;;;15.00;99.90;;;;;;6204149;22;20094;-86
2022/10/28 02:00:09;;;;;;;21.77;12.15;;;15.10;99.90;;;;;;6230446;22;20076;-85
2022/10/28 02:02:37;;;;;;;24.58;12.68;;;14.90;99.90;;;;;;6230377;22;20233;-86
2022/10/28 02:05:32;;;;;;;22.50;13.40;;;14.80;99.90;;;;;;6205639;22;20024;-85
2022/10/28 02:08:03;;;;;;;20.05;13.57;;;15.00;99.90;;;;;;6205529;22;20094;-85
2022/10/28 02:10:35;;;;;;;22.63;13.15;;;14.70;99.90;;;;;;6228454;22;20011;-86
2022/10/28 02:13:05;;;;;;;20.88;13.15;;;14.80;99.90;;;;;;6202880;22;20027;-85
2022/10/28 02:15:51;;;;;;;24.80;13.77;;;14.90;99.90;;;;;;6205982;22;20343;-85
2022/10/28 02:18:32;;;;;;;20.73;13.32;;;14.80;99.90;;;;;;6205617;22;20131;-86
2022/10/28 02:21:23;;;;;;;22.08;14.15;;;14.70;99.90;;;;;;6207118;22;20011;-85
2022/10/28 02:24:04;;;;;;;23.65;14.48;;;14.90;99.90;;;;;;6232463;22;20015;-86
2022/10/28 02:26:42;;;;;;;20.45;14.23;;;14.70;99.90;;;;;;6202951;22;20016;-85
2022/10/28 02:29:23;;;;;;;20.33;14.27;;;14.80;99.90;;;;;;6206948;22;20012;-86
2022/10/28 02:31:54;;;;;;;21.13;14.57;;;14.70;99.90;;;;;;6205890;22;20020;-86
2022/10/28 02:34:42;;;;;;;23.30;14.60;;;14.70;99.90;;;;;;6205735;22;20300;-85
2022/10/28 02:37:14;;;;;;;20.75;14.50;;;14.80;99.90;;;;;;6206387;22;20081;-86
2022/10/28 02:39:43;;;;;;;25.42;15.38;;;14.60;99.90;;;;;;6204702;22;20150;-86
2022/10/28 02:42:17;;;;;;;25.63;14.80;;;14.70;99.90;;;;;;6229168;22;20500;-86
2022/10/28 02:44:59;;;;;;;24.55;15.73;;;14.60;99.90;;;;;;6205879;22;20022;-85
2022/10/28 02:47:29;;;;;;;23.38;16.08;;;14.50;99.90;;;;;;6206510;22;20026;-85
2022/10/28 02:50:00;;;;;;;22.25;15.50;;;14.50;99.90;;;;;;6205421;22;20012;-86
2022/10/28 02:52:30;;;;;;;26.15;15.88;;;14.40;99.90;;;;;;6256218;22;20455;-86
2022/10/28 02:54:58;;;;;;;25.58;15.57;;;14.50;99.90;;;;;;6255296;22;20038;-85
2022/10/28 02:57:31;;;;;;;21.63;15.15;;;14.50;99.90;;;;;;6228808;22;20072;-86
2022/10/28 03:00:00;;;;;;;24.65;16.15;;;14.50;99.90;;;;;;6205821;22;20019;-85
2022/10/28 03:02:27;;;;;;;24.70;15.70;;;14.40;99.90;;;;;;6204063;22;20076;-86
2022/10/28 03:04:52;;;;;;;26.02;14.93;;;14.40;99.90;;;;;;6204912;22;20501;-86
2022/10/28 03:07:18;;;;;;;25.27;15.75;;;14.30;99.90;;;;;;6204269;22;20401;-85
2022/10/28 03:09:44;;;;;;;27.55;15.52;;;14.40;99.90;;;;;;6230331;22;20492;-86
2022/10/28 03:12:10;;;;;;;27.33;16.35;;;14.30;99.90;;;;;;6254025;22;20189;-85
2022/10/28 03:14:36;;;;;;;24.70;15.68;;;14.30;99.90;;;;;;6254966;22;20016;-86
2022/10/28 03:17:02;;;;;;;27.77;15.73;;;14.30;99.90;;;;;;6229566;22;20015;-85
2022/10/28 03:19:30;;;;;;;25.45;15.68;;;14.30;99.90;;;;;;6205364;22;20026;-85
2022/10/28 03:21:56;;;;;;;25.63;15.25;;;14.30;99.90;;;;;;6230662;22;20453;-86
2022/10/28 03:24:22;;;;;;;27.23;16.23;;;14.20;99.90;;;;;;6205404;22;20392;-86
2022/10/28 03:26:47;;;;;;;24.33;16.13;;;14.10;99.90;;;;;;6228829;22;20014;-85
2022/10/28 03:29:13;;;;;;;25.95;16.67;;;14.10;99.90;;;;;;6231452;22;20508;-86
2022/10/28 03:31:39;;;;;;;30.50;17.13;;;14.10;99.90;;;;;;6231675;22;20015;-85
2022/10/28 03:34:04;;;;;;;24.70;15.85;;;14.00;99.90;;;;;;6230909;22;20030;-86
2022/10/28 03:36:30;;;;;;;25.35;16.70;;;14.00;99.90;;;;;;6257994;22;20352;-86
2022/10/28 03:38:55;;;;;;;30.83;17.65;;;14.00;99.90;;;;;;6229552;22;20039;-86
2022/10/28 03:41:21;;;;;;;26.77;17.88;;;14.10;99.90;;;;;;6254250;22;20107;-86
2022/10/28 03:43:47;;;;;;;28.10;17.30;;;14.20;99.90;;;;;;6229443;22;20447;-86
2022/10/28 03:46:12;;;;;;;27.67;17.30;;;14.10;99.90;;;;;;6229558;22;20008;-86
2022/10/28 03:48:38;;;;;;;29.67;17.75;;;14.10;99.90;;;;;;6256054;22;20037;-86
2022/10/28 03:51:04;;;;;;;30.27;17.17;;;14.10;99.90;;;;;;6229145;22;20051;-85
2022/10/28 03:53:30;;;;;;;26.52;17.63;;;14.00;99.90;;;;;;6204905;22;20071;-86
2022/10/28 03:56:01;;;;;;;27.20;17.90;;;13.90;99.90;;;;;;6227436;22;20035;-86
2022/10/28 03:58:28;;;;;;;27.58;16.95;;;13.90;99.90;;;;;;6254157;22;20027;-85
2022/10/28 04:00:54;;;;;;;29.17;18.17;;;13.90;99.90;;;;;;6204300;22;20020;-85
2022/10/28 04:03:21;;;;;;;25.60;16.85;;;13.70;99.90;;;;;;6203741;22;20016;-86
2022/10/28 04:05:47;;;;;;;28.08;15.65;;;13.80;99.90;;;;;;6204896;22;20012;-85
2022/10/28 04:08:13;;;;;;;25.05;16.45;;;13.60;99.90;;;;;;6230996;22;20064;-86
2022/10/28 04:10:39;;;;;;;33.95;17.70;;;13.60;99.90;;;;;;6229186;22;20173;-86
2022/10/28 04:13:05;;;;;;;26.20;16.48;;;13.60;99.90;;;;;;6254887;22;20181;-85
2022/10/28 04:15:31;;;;;;;31.50;18.10;;;13.60;99.90;;;;;;6257223;22;20432;-86
2022/10/28 04:17:57;;;;;;;26.65;16.92;;;13.50;99.90;;;;;;6230944;22;20022;-86
2022/10/28 04:20:24;;;;;;;25.33;16.58;;;13.60;99.90;;;;;;6231360;22;20011;-86
2022/10/28 04:22:50;;;;;;;26.90;16.25;;;13.40;99.90;;;;;;6204291;22;20012;-86
2022/10/28 04:25:16;;;;;;;29.02;16.67;;;13.40;99.90;;;;;;6229050;22;20076;-85
2022/10/28 04:27:44;;;;;;;25.38;16.77;;;13.50;99.90;;;;;;6203736;22;20414;-86
2022/10/28 04:30:11;;;;;;;25.85;17.00;;;13.50;99.90;;;;;;6205001;22;20329;-86
2022/10/28 04:32:38;;;;;;;28.55;16.73;;;13.50;99.90;;;;;;6205692;22;20087;-86
2022/10/28 04:35:04;;;;;;;29.90;16.48;;;13.30;99.90;;;;;;6204688;22;20020;-85
2022/10/28 04:37:30;;;;;;;23.98;15.48;;;13.40;99.90;;;;;;6205919;22;20324;-85
2022/10/28 04:39:58;;;;;;;25.67;15.98;;;13.40;99.90;;;;;;6256040;22;20023;-86
2022/10/28 04:42:31;;;;;;;28.85;17.23;;;13.50;99.90;;;;;;6229956;22;20408;-86
2022/10/28 04:44:57;;;;;;;38.35;16.58;;;13.40;99.90;;;;;;6231788;22;20309;-86
2022/10/28 04:47:25;;;;;;;29.15;16.40;;;13.40;99.90;;;;;;6256733;22;20023;-86
2022/10/28 04:49:51;;;;;;;42.85;16.63;;;13.40;99.90;;;;;;6231770;22;20072;-86
2022/10/28 04:55:01;;;;;;;28.38;17.33;;;13.40;99.90;;;;;;6228743;22;20031;-86
2022/10/28 04:57:27;;;;;;;64.55;17.40;;;13.30;99.90;;;;;;6203805;22;20026;-85
2022/10/28 04:59:55;;;;;;;27.15;15.48;;;13.40;99.90;;;;;;6230540;22;20011;-86
2022/10/28 05:02:26;;;;;;;26.13;15.48;;;13.30;99.90;;;;;;6230042;22;20020;-87
2022/10/28 05:04:59;;;;;;;28.27;16.27;;;13.30;99.90;;;;;;6206687;22;20046;-86
2022/10/28 05:07:25;;;;;;;29.05;17.48;;;13.20;99.90;;;;;;6203953;22;20012;-85
2022/10/28 05:09:50;;;;;;;32.20;16.92;;;13.20;99.90;;;;;;6204888;22;20328;-85
2022/10/28 05:12:19;;;;;;;26.75;17.02;;;13.20;99.90;;;;;;6228975;22;20016;-85
2022/10/28 05:14:47;;;;;;;26.67;15.73;;;13.20;99.90;;;;;;6230368;22;20019;-86
2022/10/28 05:17:13;;;;;;;25.40;15.80;;;13.20;99.90;;;;;;6230378;22;20019;-85
2022/10/28 05:19:44;;;;;;;22.95;15.82;;;13.30;99.90;;;;;;6229926;22;20027;-86
2022/10/28 05:22:12;;;;;;;30.23;16.55;;;13.10;99.90;;;;;;6205762;22;20246;-86
2022/10/28 05:24:38;;;;;;;26.92;16.27;;;13.30;99.90;;;;;;6255519;22;20011;-86
2022/10/28 05:27:04;;;;;;;30.35;17.15;;;13.20;99.90;;;;;;6227742;22;20157;-85
2022/10/28 05:29:29;;;;;;;27.48;16.50;;;13.20;99.90;;;;;;6255814;22;20043;-86
2022/10/28 05:31:55;;;;;;;25.63;15.93;;;13.10;99.90;;;;;;6202727;22;20531;-85
2022/10/28 05:34:21;;;;;;;28.77;17.27;;;13.20;99.90;;;;;;6229182;22;20020;-86
2022/10/28 05:36:49;;;;;;;33.90;17.75;;;13.30;99.90;;;;;;6254263;22;20016;-84
2022/10/28 05:39:16;;;;;;;30.08;17.08;;;13.30;99.90;;;;;;6229494;22;20072;-85
2022/10/28 05:41:42;;;;;;;30.08;17.75;;;13.40;99.90;;;;;;6202388;22;20019;-85
2022/10/28 05:44:08;;;;;;;32.83;17.20;;;13.30;99.90;;;;;;6256157;22;20007;-86
2022/10/28 05:46:33;;;;;;;29.30;15.80;;;13.40;99.90;;;;;;6229667;22;20090;-86
2022/10/28 05:48:59;;;;;;;34.47;16.77;;;13.40;99.90;;;;;;6255996;22;20043;-86
2022/10/28 05:51:27;;;;;;;28.27;16.90;;;13.30;99.90;;;;;;6228475;22;20106;-86
2022/10/28 05:53:53;;;;;;;31.13;17.40;;;13.40;99.90;;;;;;6228515;22;20046;-86
2022/10/28 05:56:19;;;;;;;29.90;17.88;;;13.40;99.90;;;;;;6226815;22;20519;-86
2022/10/28 05:58:46;;;;;;;31.30;17.80;;;13.50;99.90;;;;;;6228188;22;20020;-85
2022/10/28 06:01:12;;;;;;;31.02;17.58;;;13.40;99.90;;;;;;6205138;22;20015;-85
2022/10/28 06:03:37;;;;;;;31.35;17.02;;;13.40;99.90;;;;;;6228652;22;20510;-86
2022/10/28 06:06:03;;;;;;;28.67;17.02;;;13.60;99.90;;;;;;6229900;22;20012;-86
2022/10/28 06:08:29;;;;;;;28.85;17.58;;;13.50;99.90;;;;;;6230289;22;20004;-86
2022/10/28 06:10:55;;;;;;;34.60;17.83;;;13.50;99.90;;;;;;6227905;22;20111;-85
2022/10/28 06:13:22;;;;;;;25.50;17.00;;;13.50;99.90;;;;;;6229859;22;20047;-85
2022/10/28 06:15:54;;;;;;;32.08;17.08;;;13.50;99.90;;;;;;6230029;22;20008;-86
2022/10/28 06:18:22;;;;;;;29.52;17.30;;;13.40;99.90;;;;;;6205516;22;20012;-85
2022/10/28 06:20:54;;;;;;;30.73;18.05;;;13.50;99.90;;;;;;6204473;22;20302;-86
2022/10/28 06:23:21;;;;;;;28.73;17.95;;;13.50;99.90;;;;;;6205488;22;20095;-86
2022/10/28 06:25:47;;;;;;;26.27;15.90;;;13.50;99.90;;;;;;6203883;22;20020;-86
2022/10/28 06:28:12;;;;;;;26.17;15.48;;;13.40;99.90;;;;;;6230447;22;20056;-86
2022/10/28 06:30:41;;;;;;;28.90;16.40;;;13.40;99.90;;;;;;6231514;22;20111;-86
2022/10/28 06:33:07;;;;;;;34.08;17.73;;;13.50;99.90;;;;;;6230067;22;20020;-86
2022/10/28 06:35:33;;;;;;;33.00;18.05;;;13.40;99.90;;;;;;6231058;22;20015;-85
2022/10/28 06:37:59;;;;;;;22.10;16.00;;;13.50;99.90;;;;;;6205219;22;20012;-86
2022/10/28 06:40:28;;;;;;;34.38;16.83;;;13.60;99.90;;;;;;6229244;22;20063;-86
2022/10/28 06:43:05;;;;;;;27.05;16.42;;;13.50;99.90;;;;;;6228673;22;20015;-86
2022/10/28 06:45:32;;;;;;;29.52;16.92;;;13.60;99.90;;;;;;6205703;22;20014;-85
2022/10/28 06:48:02;;;;;;;31.17;16.70;;;13.60;99.90;;;;;;6204103;22;20092;-86
2022/10/28 06:50:28;;;;;;;32.63;16.80;;;13.70;99.90;;;;;;6205692;22;21161;-86
2022/10/28 06:52:58;;;;;;;28.35;16.80;;;13.70;99.90;;;;;;6231486;22;20024;-86
2022/10/28 06:55:25;;;;;;;36.28;17.40;;;13.70;99.90;;;;;;6203433;22;20452;-87
2022/10/28 06:57:50;;;;;;;31.88;17.23;;;13.80;99.90;;;;;;6205988;22;20305;-86
2022/10/28 07:00:17;;;;;;;31.48;16.88;;;13.80;99.90;;;;;;6257061;22;20395;-86
2022/10/28 07:02:43;;;;;;;25.08;16.23;;;13.80;99.90;;;;;;6206546;22;20015;-86
2022/10/28 07:05:09;;;;;;;28.88;16.55;;;13.80;99.90;;;;;;6206702;22;20012;-86
2022/10/28 07:07:38;;;;;;;28.77;15.98;;;13.90;99.90;;;;;;6204830;22;20460;-86
2022/10/28 07:10:07;;;;;;;29.10;16.77;;;14.20;99.90;;;;;;6228792;22;20027;-85
2022/10/28 07:12:36;;;;;;;27.40;15.90;;;14.10;99.90;;;;;;6229276;22;20020;-85
2022/10/28 07:15:02;;;;;;;27.65;16.80;;;14.10;99.90;;;;;;6229495;22;20019;-86
2022/10/28 07:17:30;;;;;;;25.92;15.93;;;14.20;99.90;;;;;;6204631;22;20015;-86
2022/10/28 07:20:01;;;;;;;29.20;15.88;;;14.30;99.90;;;;;;6230720;22;20408;-86
2022/10/28 07:22:26;;;;;;;27.85;15.10;;;14.30;99.90;;;;;;6204550;22;20067;-86
2022/10/28 07:24:54;;;;;;;25.92;14.90;;;14.60;99.90;;;;;;6227725;22;20016;-86
2022/10/28 07:27:25;;;;;;;27.52;14.98;;;14.50;99.90;;;;;;6202870;22;20354;-86
2022/10/28 07:29:51;;;;;;;25.42;14.80;;;14.70;99.90;;;;;;6228765;22;20511;-85
2022/10/28 07:32:17;;;;;;;30.70;15.73;;;14.70;99.90;;;;;;6227511;22;20488;-86
2022/10/28 07:34:43;;;;;;;26.42;14.85;;;14.90;99.90;;;;;;6229608;22;20026;-86
2022/10/28 07:37:10;;;;;;;23.95;14.13;;;14.80;99.90;;;;;;6229511;22;20019;-86
2022/10/28 07:39:36;;;;;;;24.95;12.98;;;15.10;99.90;;;;;;6203725;22;20020;-86
2022/10/28 07:42:01;;;;;;;26.75;13.60;;;15.20;99.90;;;;;;6252935;22;20144;-86
2022/10/28 07:44:27;;;;;;;19.70;12.88;;;15.20;99.90;;;;;;6230370;22;20019;-86
2022/10/28 07:46:55;;;;;;;25.25;12.52;;;15.30;99.90;;;;;;6228851;22;20221;-86
2022/10/28 07:49:24;;;;;;;21.63;11.32;;;15.40;99.90;;;;;;6204421;22;20444;-85
2022/10/28 07:51:50;;;;;;;21.75;11.65;;;15.40;99.90;;;;;;6228362;22;20023;-85
2022/10/28 07:54:16;;;;;;;19.95;11.10;;;15.50;99.90;;;;;;6228863;22;20238;-86
2022/10/28 07:56:42;;;;;;;21.10;11.05;;;15.60;99.90;;;;;;6226888;22;20223;-86
2022/10/28 07:59:07;;;;;;;15.43;10.27;;;15.60;99.90;;;;;;6228189;22;20043;-86
2022/10/28 08:01:37;;;;;;;20.25;10.73;;;15.70;99.90;;;;;;6228516;22;20396;-85
2022/10/28 08:04:08;;;;;;;16.35;10.45;;;15.70;99.90;;;;;;6227945;22;20188;-86
2022/10/28 08:06:35;;;;;;;16.95;9.65;;;15.80;99.90;;;;;;6229907;22;20008;-86
2022/10/28 08:09:03;;;;;;;19.67;9.15;;;15.70;99.90;;;;;;6204097;22;20628;-86
2022/10/28 08:11:32;;;;;;;16.65;9.23;;;15.90;99.90;;;;;;6201800;22;20452;-85
2022/10/28 08:13:57;;;;;;;17.02;8.80;;;16.00;99.90;;;;;;6205935;22;20628;-86
2022/10/28 08:16:31;;;;;;;17.08;8.77;;;16.00;99.90;;;;;;6207263;22;20024;-86
2022/10/28 08:19:00;;;;;;;16.30;8.10;;;16.10;99.90;;;;;;6236503;22;20015;-86
2022/10/28 08:21:26;;;;;;;19.73;8.70;;;16.00;99.90;;;;;;6211566;22;20459;-86
2022/10/28 08:23:53;;;;;;;15.18;8.35;;;16.10;99.90;;;;;;6236989;22;20043;-86
2022/10/28 08:26:19;;;;;;;16.45;8.20;;;16.20;99.90;;;;;;6236541;22;20019;-86
2022/10/28 08:28:45;;;;;;;18.65;7.45;;;16.20;99.90;;;;;;6237624;22;20008;-86
2022/10/28 08:31:13;;;;;;;19.63;7.70;;;16.30;99.90;;;;;;6236140;22;20016;-86
2022/10/28 08:33:45;;;;;;;16.10;7.97;;;16.40;99.90;;;;;;6212588;22;20095;-86
2022/10/28 08:36:13;;;;;;;14.07;7.32;;;16.40;99.90;;;;;;6211973;22;20100;-86
2022/10/28 08:38:39;;;;;;;16.02;7.57;;;16.60;99.90;;;;;;6210669;22;20019;-86
2022/10/28 08:41:11;;;;;;;15.52;7.70;;;16.60;99.90;;;;;;6200342;22;20406;-86
2022/10/28 08:43:55;;;;;;;16.85;7.95;;;16.60;99.90;;;;;;6228799;22;20011;-85
2022/10/28 08:46:35;;;;;;;17.83;7.35;;;16.70;99.90;;;;;;6205310;22;20019;-86
2022/10/28 08:49:07;;;;;;;18.30;7.00;;;16.90;99.90;;;;;;6229823;22;20019;-86
2022/10/28 08:51:41;;;;;;;15.65;6.93;;;17.00;99.90;;;;;;6204403;22;20119;-85
2022/10/28 08:54:16;;;;;;;12.48;6.97;;;17.00;99.90;;;;;;6204553;22;20630;-86
2022/10/28 08:56:47;;;;;;;18.50;7.18;;;17.10;99.90;;;;;;6226586;22;20027;-85
2022/10/28 08:59:20;;;;;;;15.60;6.50;;;17.20;99.90;;;;;;6204855;22;20031;-86
2022/10/28 09:01:48;;;;;;;16.65;6.82;;;17.20;99.90;;;;;;6229733;22;20593;-86
2022/10/28 09:04:23;;;;;;;12.18;6.40;;;17.20;99.90;;;;;;6229874;22;20026;-86
2022/10/28 09:06:49;;;;;;;;;;;17.30;99.90;;;;;;6206064;22;20012;-86
2022/10/28 09:09:20;;;;;;;15.68;6.80;;;17.30;99.90;;;;;;6204896;22;20176;-87
2022/10/28 09:11:52;;;;;;;10.98;6.20;;;17.40;99.90;;;;;;6202510;22;20031;-86
2022/10/28 09:14:18;;;;;;;18.73;6.68;;;17.40;99.90;;;;;;6231062;22;20022;-86
2022/10/28 09:16:46;;;;;;;17.27;6.82;;;17.40;99.90;;;;;;6205069;22;20298;-86
2022/10/28 09:19:43;;;;;;;16.13;6.90;;;17.40;99.90;;;;;;6205339;22;20016;-86
2022/10/28 09:22:22;;;;;;;12.60;6.47;;;17.40;99.90;;;;;;6204945;22;20405;-86
2022/10/28 09:24:53;;;;;;;15.98;6.45;;;17.40;99.90;;;;;;6229120;22;20105;-86
2022/10/28 09:27:27;;;;;;;15.07;6.50;;;17.50;99.90;;;;;;6202809;22;20019;-86
2022/10/28 09:30:13;;;;;;;12.45;6.18;;;17.50;99.90;;;;;;6205812;22;20561;-87
2022/10/28 09:33:22;;;;;;;13.50;6.68;;;17.60;99.90;;;;;;6204748;22;20071;-86
2022/10/28 09:35:49;;;;;;;11.65;6.22;;;17.60;99.90;;;;;;6204932;22;20410;-86
2022/10/28 09:38:31;;;;;;;18.88;7.20;;;17.60;99.90;;;;;;6205544;22;20070;-86
2022/10/28 09:41:09;;;;;;;14.65;6.70;;;17.70;99.90;;;;;;6202655;22;20148;-86
2022/10/28 09:43:42;;;;;;;11.13;6.50;;;17.80;99.90;;;;;;6229357;22;20008;-86
2022/10/28 09:46:19;;;;;;;12.35;5.75;;;17.70;99.90;;;;;;6204830;22;20022;-86
2022/10/28 09:48:48;;;;;;;17.35;6.68;;;17.80;99.90;;;;;;6229397;22;20011;-86
2022/10/28 09:51:19;;;;;;;13.05;6.43;;;17.90;99.90;;;;;;6204338;22;20639;-86
2022/10/28 09:53:57;;;;;;;15.05;5.97;;;17.90;99.90;;;;;;6205862;22;20444;-86
2022/10/28 09:56:23;;;;;;;16.50;6.20;;;18.00;99.90;;;;;;6202159;22;20016;-85
2022/10/28 09:58:49;;;;;;;12.77;6.05;;;18.00;99.90;;;;;;6204109;22;20016;-85
2022/10/28 10:01:16;;;;;;;13.00;5.85;;;18.00;99.90;;;;;;6228884;22;20030;-86
2022/10/28 10:03:45;;;;;;;13.57;5.80;;;18.10;99.90;;;;;;6204029;22;20012;-86
2022/10/28 10:06:22;;;;;;;16.67;6.03;;;18.20;99.90;;;;;;6205585;22;20159;-86
2022/10/28 10:08:48;;;;;;;11.55;5.38;;;18.20;99.90;;;;;;6204324;22;20036;-86
2022/10/28 10:11:39;;;;;;;13.15;5.82;;;18.30;99.90;;;;;;6228274;22;20016;-86
2022/10/28 10:14:10;;;;;;;12.13;5.50;;;18.20;99.90;;;;;;6229753;22;20335;-86
2022/10/28 10:16:51;;;;;;;13.25;5.60;;;18.30;99.90;;;;;;6204613;22;20331;-86
2022/10/28 10:19:16;;;;;;;11.90;5.55;;;18.40;99.90;;;;;;6230542;22;20374;-86
2022/10/28 10:21:49;;;;;;;12.75;5.70;;;18.50;99.90;;;;;;6204097;22;20015;-86
2022/10/28 10:24:30;;;;;;;10.48;5.70;;;18.60;99.90;;;;;;6203977;22;20016;-86
2022/10/28 10:27:19;;;;;;;17.83;6.20;;;18.70;99.90;;;;;;6202468;22;20084;-85
2022/10/28 10:29:48;;;;;;;15.35;5.70;;;18.70;99.90;;;;;;6238877;22;20020;-86
2022/10/28 10:32:31;;;;;;;10.30;5.28;;;18.80;99.90;;;;;;6201978;22;20051;-86
2022/10/28 10:35:11;;;;;;;9.88;5.63;;;18.90;99.90;;;;;;6204616;22;20019;-86
2022/10/28 10:37:43;;;;;;;13.30;6.00;;;18.90;99.90;;;;;;6229411;22;20343;-86
2022/10/28 10:40:21;;;;;;;10.18;5.10;;;19.10;99.90;;;;;;6227300;22;20413;-86
2022/10/28 10:42:47;;;;;;;14.70;5.70;;;19.10;99.90;;;;;;6202464;22;20027;-85
2022/10/28 10:45:26;;;;;;;10.00;5.43;;;19.20;99.90;;;;;;6229075;22;20012;-85
2022/10/28 10:48:09;;;;;;;13.68;5.65;;;19.20;99.90;;;;;;6228612;22;20016;-86
2022/10/28 10:50:36;;;;;;;16.20;5.85;;;19.20;99.90;;;;;;6204518;22;20043;-86
2022/10/28 10:53:03;;;;;;;17.80;5.93;;;19.10;99.90;;;;;;6203165;22;20019;-85
2022/10/28 10:55:38;;;;;;;16.23;5.15;;;19.30;99.90;;;;;;6203253;22;20122;-86
2022/10/28 10:58:04;;;;;;;;;;;19.30;99.90;;;;;;6228001;22;20019;-86
2022/10/28 11:00:37;;;;;;;19.58;5.43;;;19.30;99.90;;;;;;6204473;22;19976;-86
2022/10/28 11:03:05;;;;;;;12.10;5.68;;;19.50;99.90;;;;;;6203844;22;20039;-87
2022/10/28 11:05:32;;;;;;;18.95;5.78;;;19.60;99.90;;;;;;6204472;22;20050;-85
2022/10/28 11:08:05;;;;;;;17.55;5.68;;;19.50;99.90;;;;;;6204294;22;20441;-85
2022/10/28 11:10:33;;;;;;;12.75;5.55;;;19.50;99.90;;;;;;6203329;22;20348;-85
2022/10/28 11:13:21;;;;;;;19.83;5.53;;;19.50;99.90;;;;;;6202371;22;20136;-85
2022/10/28 11:16:02;;;;;;;18.00;5.28;;;19.50;99.90;;;;;;6204723;22;20060;-85
2022/10/28 11:18:37;;;;;;;14.65;5.90;;;19.80;99.90;;;;;;6204115;22;20395;-86
2022/10/28 11:21:06;;;;;;;13.50;5.65;;;19.90;99.90;;;;;;6230172;22;20020;-85
2022/10/28 11:24:09;;;;;;;12.48;4.90;;;20.10;99.90;;;;;;6230503;22;20087;-85
2022/10/28 11:26:43;;;;;;;15.10;5.68;;;20.00;99.90;;;;;;6202531;22;20456;-86
2022/10/28 11:29:13;;;;;;;14.73;5.30;;;20.20;99.90;;;;;;6203421;22;20052;-85
2022/10/28 11:32:00;;;;;;;10.77;5.38;;;20.30;99.90;;;;;;6202985;22;20015;-85
2022/10/28 11:34:50;;;;;;;12.65;5.25;;;20.40;99.90;;;;;;6205801;22;20031;-87
2022/10/28 11:37:28;;;;;;;19.95;5.85;;;20.50;99.90;;;;;;6229534;22;20043;-87
2022/10/28 11:40:06;;;;;;;15.05;5.40;;;20.60;99.90;;;;;;6202663;22;20030;-87
2022/10/28 11:42:35;;;;;;;16.40;5.72;;;20.50;99.90;;;;;;6204314;22;20317;-87
2022/10/28 11:45:22;;;;;;;12.82;5.07;;;20.40;99.90;;;;;;6230161;22;20015;-87
2022/10/28 11:48:14;;;;;;;13.32;5.85;;;20.40;99.90;;;;;;6230359;22;20344;-86
2022/10/28 11:51:02;;;;;;;12.68;5.57;;;20.50;99.90;;;;;;6209255;22;20019;-87
2022/10/28 11:53:53;;;;;;;20.50;5.35;;;20.70;99.90;;;;;;6205266;22;20028;-87
2022/10/28 11:56:34;;;;;;;15.60;5.60;;;20.50;99.90;;;;;;6203776;22;20022;-86
2022/10/28 11:59:24;;;;;;;10.40;5.30;;;20.70;99.90;;;;;;6205515;22;20466;-87
2022/10/28 12:02:18;;;;;;;17.48;5.65;;;20.60;99.90;;;;;;6204752;22;20018;-87
2022/10/28 12:04:56;;;;;;;14.48;5.10;;;20.60;99.90;;;;;;6205952;22;20008;-87
2022/10/28 12:07:49;;;;;;;12.02;5.35;;;20.70;99.90;;;;;;6205505;22;20034;-87
2022/10/28 12:10:41;;;;;;;18.25;5.53;;;20.70;99.90;;;;;;6203245;22;20019;-88
2022/10/28 12:13:30;;;;;;;11.82;5.43;;;20.60;99.90;;;;;;6208883;22;20030;-87
2022/10/28 12:16:02;;;;;;;13.13;5.90;;;20.60;99.90;;;;;;6205875;22;20025;-87
2022/10/28 12:18:58;;;;;;;15.38;5.38;;;20.60;99.90;;;;;;6205262;22;20019;-87
2022/10/28 12:21:35;;;;;;;9.65;5.30;;;20.60;99.90;;;;;;6205603;22;20011;-87
2022/10/28 12:24:05;;;;;;;17.17;6.28;;;20.60;99.90;;;;;;6206139;22;20454;-87
2022/10/28 12:26:38;;;;;;;9.98;5.22;;;20.50;99.90;;;;;;6205902;22;20023;-88
2022/10/28 12:29:18;;;;;;;14.30;5.78;;;20.50;99.90;;;;;;6213202;22;20088;-88
2022/10/28 12:32:25;;;;;;;12.25;5.60;;;20.50;99.90;;;;;;6230677;22;20019;-85
2022/10/28 12:34:59;;;;;;;17.17;6.07;;;20.50;99.90;;;;;;6248237;22;20111;-84
2022/10/28 12:37:37;;;;;;;13.75;6.35;;;20.40;99.90;;;;;;6206117;22;20016;-86
2022/10/28 12:40:19;;;;;;;13.50;5.90;;;20.40;99.90;;;;;;6206140;22;20754;-85
2022/10/28 12:42:55;;;;;;;15.15;5.57;;;20.40;99.90;;;;;;6205593;22;20265;-85
2022/10/28 12:45:24;;;;;;;12.00;6.07;;;20.40;99.90;;;;;;6231750;22;20527;-86
2022/10/28 12:47:58;;;;;;;16.58;5.95;;;20.30;99.90;;;;;;6231936;22;20015;-85
2022/10/28 12:50:35;;;;;;;13.25;5.88;;;20.40;99.90;;;;;;6206661;22;20064;-85
2022/10/28 12:53:17;;;;;;;15.13;5.97;;;20.30;99.90;;;;;;6200837;23;20020;-85
2022/10/28 12:55:59;;;;;;;18.00;6.00;;;20.30;99.90;;;;;;6201535;22;20385;-86
2022/10/28 12:58:45;;;;;;;16.20;6.65;;;20.40;99.90;;;;;;6200651;22;20412;-86
2022/10/28 13:01:14;;;;;;;15.77;6.30;;;20.40;99.90;;;;;;6211872;22;20016;-85